Time;durP1;ratioP1;P1;durP2;ratioP2;P2;SDS_P1;SDS_P2;PMS_P1;PMS_P2;Temp;Humidity;BMP_temperature;BMP_pressure;BME280_temperature;BME280_humidity;BME280_pressure;Samples;Min_cycle;Max_cycle;Signal;HPM_P1;HPM_P2
2021/09/14 00:02:22;;;;;;;26.33;18.90;;;20.30;67.00;;;;;;5138570;27;20027;-34
2021/09/14 00:04:48;;;;;;;24.30;17.73;;;20.30;67.20;;;;;;5138338;27;20403;-35
2021/09/14 00:07:14;;;;;;;22.90;17.20;;;20.30;67.30;;;;;;5138168;27;20076;-35
2021/09/14 00:09:39;;;;;;;26.60;16.98;;;20.20;67.30;;;;;;5137975;27;20023;-34
2021/09/14 00:12:05;;;;;;;27.02;17.27;;;20.30;67.40;;;;;;5138358;27;20046;-35
2021/09/14 00:14:31;;;;;;;26.67;18.02;;;20.20;67.50;;;;;;5138261;27;20376;-34
2021/09/14 00:16:57;;;;;;;23.13;17.65;;;20.20;67.70;;;;;;5137601;27;20117;-36
2021/09/14 00:19:24;;;;;;;21.92;16.85;;;20.20;67.70;;;;;;5137807;27;20023;-34
2021/09/14 00:21:50;;;;;;;23.17;16.55;;;20.20;67.80;;;;;;5138038;27;20028;-34
2021/09/14 00:24:15;;;;;;;21.27;16.30;;;20.20;67.80;;;;;;5138167;27;20023;-33
2021/09/14 00:26:41;;;;;;;28.15;17.52;;;20.20;67.90;;;;;;5137920;27;20027;-33
2021/09/14 00:29:07;;;;;;;25.67;17.48;;;20.20;68.00;;;;;;5137622;27;20076;-33
2021/09/14 00:31:33;;;;;;;27.25;17.23;;;20.20;68.60;;;;;;5137511;27;20415;-33
2021/09/14 00:33:59;;;;;;;24.05;18.00;;;20.10;68.00;;;;;;5137554;27;20030;-34
2021/09/14 00:36:25;;;;;;;27.05;16.70;;;20.10;68.20;;;;;;5137766;27;20102;-35
2021/09/14 00:38:50;;;;;;;20.33;15.13;;;20.10;68.10;;;;;;5137394;27;20377;-34
2021/09/14 00:41:16;;;;;;;26.40;16.92;;;20.10;68.20;;;;;;5137673;27;20114;-33
2021/09/14 00:43:42;;;;;;;21.95;15.55;;;20.10;68.30;;;;;;5137739;27;20023;-35
2021/09/14 00:46:07;;;;;;;21.38;15.18;;;20.10;68.30;;;;;;5137493;27;20019;-34
2021/09/14 00:48:33;;;;;;;26.67;17.85;;;20.00;68.30;;;;;;5137517;27;20035;-35
2021/09/14 00:50:59;;;;;;;25.45;16.00;;;20.00;68.60;;;;;;5136762;27;20023;-36
2021/09/14 00:53:26;;;;;;;21.23;15.88;;;20.00;68.60;;;;;;5137611;27;20043;-34
2021/09/14 00:55:54;;;;;;;20.95;15.65;;;20.00;68.80;;;;;;5136965;27;20031;-34
2021/09/14 00:58:20;;;;;;;24.85;15.80;;;20.00;68.90;;;;;;5137191;27;20069;-34
2021/09/14 01:00:45;;;;;;;21.00;15.55;;;20.00;69.00;;;;;;5137092;27;20403;-36
2021/09/14 01:03:11;;;;;;;20.60;15.02;;;20.00;69.20;;;;;;5137579;27;20031;-36
2021/09/14 01:05:37;;;;;;;20.40;15.75;;;20.00;69.20;;;;;;5137237;27;20027;-36
2021/09/14 01:08:04;;;;;;;25.70;17.15;;;19.90;69.20;;;;;;5137135;27;20027;-35
2021/09/14 01:10:30;;;;;;;20.77;15.93;;;20.00;69.50;;;;;;5136865;27;20342;-35
2021/09/14 01:12:56;;;;;;;21.67;15.57;;;19.90;69.50;;;;;;5136978;27;20035;-34
2021/09/14 01:15:24;;;;;;;24.02;16.67;;;19.90;69.60;;;;;;5137162;27;20031;-35
2021/09/14 01:17:50;;;;;;;20.73;15.73;;;19.90;69.90;;;;;;5136842;27;20035;-36
2021/09/14 01:20:16;;;;;;;21.27;16.58;;;19.90;69.80;;;;;;5137034;27;20027;-35
2021/09/14 01:22:41;;;;;;;20.52;15.55;;;19.90;70.00;;;;;;5136816;27;20288;-36
2021/09/14 01:25:22;;;;;;;20.38;15.73;;;19.90;70.10;;;;;;5136969;27;20038;-36
2021/09/14 01:27:48;;;;;;;23.02;16.83;;;19.90;70.00;;;;;;5136888;27;20039;-36
2021/09/14 01:30:20;;;;;;;22.50;14.55;;;19.90;70.30;;;;;;5136972;27;20124;-35
2021/09/14 01:32:51;;;;;;;21.95;15.30;;;19.90;70.30;;;;;;5136794;27;20106;-36
2021/09/14 01:35:20;;;;;;;24.30;16.90;;;19.90;70.40;;;;;;5136618;27;20042;-35
2021/09/14 01:37:46;;;;;;;23.20;16.65;;;19.80;70.60;;;;;;5136735;28;20088;-35
2021/09/14 01:40:12;;;;;;;23.90;17.23;;;19.90;70.70;;;;;;5136662;28;20054;-34
2021/09/14 01:42:38;;;;;;;24.50;17.27;;;19.90;70.80;;;;;;5136704;28;20031;-35
2021/09/14 01:45:05;;;;;;;23.48;16.85;;;19.90;70.80;;;;;;5136693;28;20080;-34
2021/09/14 01:47:31;;;;;;;21.80;16.70;;;19.90;70.90;;;;;;5136654;28;20039;-34
2021/09/14 01:49:56;;;;;;;25.80;17.70;;;19.80;70.90;;;;;;5136312;28;20076;-36
2021/09/14 01:52:22;;;;;;;22.60;16.42;;;19.80;70.90;;;;;;5136579;28;20027;-34
2021/09/14 01:54:50;;;;;;;24.88;17.02;;;19.80;70.90;;;;;;5136242;28;20054;-35
2021/09/14 01:57:20;;;;;;;24.55;17.48;;;19.90;71.00;;;;;;5136379;28;20066;-36
2021/09/14 01:59:46;;;;;;;22.63;16.85;;;19.90;71.20;;;;;;5136295;28;20080;-35
2021/09/14 02:02:23;;;;;;;27.45;17.40;;;19.80;71.10;;;;;;5138364;27;20042;-35
2021/09/14 02:58:45;;;;;;;23.67;17.40;;;19.80;72.10;;;;;;5139752;27;20080;-34
2021/09/14 03:01:13;;;;;;;26.23;18.67;;;19.80;72.20;;;;;;5139387;27;20038;-35
2021/09/14 03:03:44;;;;;;;29.92;20.42;;;19.80;72.20;;;;;;5139229;27;20023;-35
2021/09/14 03:06:11;;;;;;;29.67;19.42;;;19.80;72.30;;;;;;5139417;27;20445;-36
2021/09/14 03:08:38;;;;;;;28.98;19.02;;;19.80;72.30;;;;;;5139223;27;20034;-35
2021/09/14 03:11:08;;;;;;;27.65;21.13;;;19.80;72.30;;;;;;5139439;27;20031;-34
2021/09/14 03:13:38;;;;;;;24.45;19.42;;;19.80;72.50;;;;;;5138617;27;20423;-37
2021/09/14 03:16:07;;;;;;;23.07;17.63;;;19.70;72.60;;;;;;5139253;27;20446;-36
2021/09/14 03:18:33;;;;;;;25.77;19.50;;;19.70;72.60;;;;;;5139323;27;20311;-34
2021/09/14 03:20:59;;;;;;;22.80;17.33;;;19.70;72.60;;;;;;5139041;27;20019;-35
2021/09/14 03:23:25;;;;;;;25.20;18.25;;;19.70;72.60;;;;;;5139014;27;20031;-33
2021/09/14 03:25:51;;;;;;;23.13;17.80;;;19.70;72.80;;;;;;5139059;27;20015;-34
2021/09/14 03:28:17;;;;;;;24.60;18.13;;;19.70;72.80;;;;;;5139457;27;20031;-34
2021/09/14 03:30:44;;;;;;;25.80;19.92;;;19.60;72.70;;;;;;5138897;27;20023;-35
2021/09/14 03:33:10;;;;;;;31.35;20.85;;;19.70;72.90;;;;;;5139233;27;20039;-35
2021/09/14 03:35:36;;;;;;;25.80;18.60;;;19.70;73.00;;;;;;5138602;27;20040;-35
2021/09/14 03:38:02;;;;;;;28.30;19.77;;;19.70;72.90;;;;;;5139008;27;20035;-35
2021/09/14 03:40:27;;;;;;;23.10;17.83;;;19.70;73.10;;;;;;5138635;27;20026;-35
2021/09/14 03:42:53;;;;;;;24.15;18.10;;;19.70;73.00;;;;;;5138907;27;20027;-34
2021/09/14 03:45:19;;;;;;;28.05;20.50;;;19.70;73.10;;;;;;5138651;27;20383;-35
2021/09/14 03:47:44;;;;;;;27.27;19.75;;;19.70;73.20;;;;;;5138676;27;20314;-36
2021/09/14 03:50:11;;;;;;;23.08;18.13;;;19.60;73.20;;;;;;5138416;27;20369;-34
2021/09/14 03:52:36;;;;;;;25.42;18.73;;;19.60;73.20;;;;;;5138610;27;20050;-34
2021/09/14 03:55:03;;;;;;;26.55;19.48;;;19.70;73.40;;;;;;5138660;27;20411;-34
2021/09/14 03:57:28;;;;;;;25.55;18.88;;;19.70;73.50;;;;;;5138437;27;20074;-34
2021/09/14 03:59:55;;;;;;;25.90;19.10;;;19.60;73.50;;;;;;5138345;27;20043;-34
2021/09/14 04:05:06;;;;;;;26.27;19.90;;;19.60;73.60;;;;;;5138102;27;20091;-34
2021/09/14 04:09:57;;;;;;;32.50;21.38;;;19.60;73.60;;;;;;5137574;27;20019;-36
2021/09/14 04:12:22;;;;;;;28.50;20.98;;;19.60;73.60;;;;;;5137784;27;20063;-34
2021/09/14 04:14:48;;;;;;;24.38;17.67;;;19.60;73.60;;;;;;5138135;27;20121;-35
2021/09/14 04:17:14;;;;;;;25.40;19.02;;;19.60;73.50;;;;;;5138139;27;20098;-35
2021/09/14 04:19:39;;;;;;;25.85;19.08;;;19.60;73.50;;;;;;5137950;27;20034;-35
2021/09/14 04:22:05;;;;;;;23.77;18.75;;;19.70;73.60;;;;;;5137763;27;20027;-34
2021/09/14 04:24:31;;;;;;;25.00;18.77;;;19.70;73.60;;;;;;5136924;27;20399;-35
2021/09/14 04:26:56;;;;;;;25.23;20.48;;;19.70;73.60;;;;;;5137739;27;20035;-34
2021/09/14 04:29:22;;;;;;;25.25;19.60;;;19.70;73.70;;;;;;5137416;27;20015;-34
2021/09/14 04:31:48;;;;;;;25.27;18.92;;;19.70;73.80;;;;;;5137648;27;20031;-35
2021/09/14 04:34:13;;;;;;;27.55;20.25;;;19.70;73.80;;;;;;5137565;27;20023;-36
2021/09/14 04:36:39;;;;;;;29.95;22.23;;;19.70;73.90;;;;;;5137116;27;20031;-35
2021/09/14 04:39:04;;;;;;;56.65;21.52;;;19.70;74.00;;;;;;5137474;27;20028;-35
2021/09/14 04:41:30;;;;;;;27.10;19.45;;;19.70;74.10;;;;;;5137142;27;20040;-35
2021/09/14 04:43:56;;;;;;;27.17;19.15;;;19.70;74.20;;;;;;5137544;27;20073;-35
2021/09/14 04:46:21;;;;;;;26.25;20.02;;;19.70;74.20;;;;;;5137215;27;20317;-34
2021/09/14 04:48:47;;;;;;;25.52;18.42;;;19.70;74.20;;;;;;5136584;27;20034;-36
2021/09/14 04:51:13;;;;;;;32.28;19.83;;;19.80;74.10;;;;;;5136587;27;20027;-34
2021/09/14 04:53:38;;;;;;;26.80;20.15;;;19.80;74.10;;;;;;5136966;27;20039;-34
2021/09/14 04:56:04;;;;;;;32.83;20.27;;;19.80;74.10;;;;;;5136823;27;20407;-36
2021/09/14 04:58:33;;;;;;;34.42;21.35;;;19.80;74.00;;;;;;5137052;27;20042;-34
2021/09/14 05:00:58;;;;;;;32.33;20.88;;;19.80;74.00;;;;;;5137026;27;20311;-34
2021/09/14 05:03:24;;;;;;;28.67;20.27;;;19.80;74.10;;;;;;5137217;27;20038;-35
2021/09/14 05:05:50;;;;;;;33.83;22.98;;;19.90;74.20;;;;;;5136895;27;20098;-37
2021/09/14 05:08:15;;;;;;;27.77;21.83;;;19.90;74.10;;;;;;5137177;27;20035;-35
2021/09/14 05:10:41;;;;;;;26.35;19.73;;;19.90;74.10;;;;;;5136767;27;20080;-37
2021/09/14 05:13:07;;;;;;;25.20;19.20;;;20.00;73.90;;;;;;5136960;27;20063;-37
2021/09/14 05:15:33;;;;;;;27.27;19.00;;;20.00;73.90;;;;;;5136356;27;20054;-36
2021/09/14 05:17:58;;;;;;;24.23;17.63;;;20.00;73.70;;;;;;5136432;27;20067;-36
2021/09/14 05:20:24;;;;;;;26.75;18.73;;;20.10;73.90;;;;;;5136514;27;20078;-35
2021/09/14 05:23:00;;;;;;;28.02;19.77;;;20.10;74.00;;;;;;5136661;27;20027;-36
2021/09/14 05:25:25;;;;;;;23.23;17.20;;;20.20;73.90;;;;;;5136836;27;20059;-36
2021/09/14 05:27:51;;;;;;;24.67;18.80;;;20.30;73.90;;;;;;5136661;27;20086;-36
2021/09/14 05:30:16;;;;;;;23.40;16.02;;;20.30;73.70;;;;;;5136592;27;20438;-36
2021/09/14 05:32:42;;;;;;;22.75;17.27;;;20.40;73.70;;;;;;5136370;27;20344;-34
2021/09/14 05:35:08;;;;;;;27.45;17.65;;;20.40;73.50;;;;;;5136301;27;20027;-35
2021/09/14 05:37:34;;;;;;;20.55;15.90;;;20.40;73.30;;;;;;5136556;27;20040;-36
2021/09/14 05:39:59;;;;;;;24.50;17.00;;;20.40;73.30;;;;;;5136362;28;20315;-35
2021/09/14 05:42:25;;;;;;;22.58;15.65;;;20.50;73.10;;;;;;5136501;28;20038;-36
2021/09/14 05:44:50;;;;;;;21.40;16.75;;;20.50;73.00;;;;;;5136001;28;20106;-35
2021/09/14 05:47:16;;;;;;;20.58;16.45;;;20.50;73.00;;;;;;5136319;28;20035;-37
2021/09/14 05:49:42;;;;;;;21.42;16.42;;;20.50;72.90;;;;;;5135984;28;20023;-35
2021/09/14 05:52:08;;;;;;;23.25;14.63;;;20.50;72.80;;;;;;5136329;28;20048;-34
2021/09/14 05:54:33;;;;;;;20.65;13.55;;;20.60;72.70;;;;;;5135776;28;20051;-36
2021/09/14 05:56:59;;;;;;;15.73;12.85;;;20.60;72.60;;;;;;5136270;28;20054;-35
2021/09/14 05:59:25;;;;;;;16.02;12.73;;;20.70;72.30;;;;;;5135923;28;20046;-34
2021/09/14 06:01:50;;;;;;;16.65;12.10;;;20.70;72.10;;;;;;5135903;28;20023;-34
2021/09/14 06:04:16;;;;;;;16.05;12.05;;;20.70;72.00;;;;;;5136386;28;20027;-36
2021/09/14 06:06:42;;;;;;;16.17;12.93;;;20.80;71.80;;;;;;5135892;28;20104;-34
2021/09/14 06:09:08;;;;;;;14.90;11.02;;;20.90;71.30;;;;;;5135974;28;20117;-35
2021/09/14 06:11:33;;;;;;;16.50;11.45;;;20.90;71.00;;;;;;5136165;28;20288;-37
2021/09/14 06:13:59;;;;;;;16.15;11.57;;;21.00;70.80;;;;;;5135946;28;20102;-35
2021/09/14 06:16:25;;;;;;;17.67;12.25;;;21.00;70.20;;;;;;5135788;28;20038;-35
2021/09/14 06:18:50;;;;;;;15.32;12.30;;;21.10;70.00;;;;;;5136033;28;20114;-35
2021/09/14 06:21:16;;;;;;;19.73;11.80;;;21.10;70.00;;;;;;5136194;28;20039;-37
2021/09/14 06:23:42;;;;;;;14.88;11.75;;;21.20;70.00;;;;;;5135930;28;20027;-35
2021/09/14 06:26:07;;;;;;;16.27;11.45;;;21.20;70.00;;;;;;5135727;28;20037;-34
2021/09/14 06:28:33;;;;;;;14.95;11.27;;;21.20;70.00;;;;;;5135615;28;20364;-35
2021/09/14 06:30:59;;;;;;;15.13;11.30;;;21.30;69.80;;;;;;5136105;28;20035;-36
2021/09/14 06:33:24;;;;;;;15.50;11.48;;;21.40;69.70;;;;;;5136427;28;20369;-36
2021/09/14 06:35:50;;;;;;;15.52;10.13;;;21.40;69.40;;;;;;5135594;28;20046;-37
2021/09/14 06:38:16;;;;;;;13.88;9.85;;;21.50;69.10;;;;;;5136124;28;20035;-37
2021/09/14 06:40:42;;;;;;;13.43;10.10;;;21.50;69.20;;;;;;5135472;28;20034;-36
2021/09/14 06:43:07;;;;;;;13.23;11.10;;;21.60;69.10;;;;;;5135986;28;20205;-36
2021/09/14 06:45:33;;;;;;;13.85;10.63;;;21.70;69.00;;;;;;5135545;28;20102;-35
2021/09/14 06:47:58;;;;;;;13.07;10.18;;;21.70;69.00;;;;;;5137534;27;20078;-38
2021/09/14 06:50:24;;;;;;;12.63;10.93;;;21.80;69.00;;;;;;5139697;27;20023;-36
2021/09/14 06:52:50;;;;;;;12.95;9.77;;;21.90;68.80;;;;;;5139552;27;20035;-36
2021/09/14 06:55:16;;;;;;;14.00;10.27;;;22.00;68.60;;;;;;5139296;27;20079;-36
2021/09/14 06:57:41;;;;;;;11.43;9.38;;;22.00;68.40;;;;;;5139482;27;20390;-38
2021/09/14 07:00:08;;;;;;;10.27;9.10;;;22.10;67.90;;;;;;5139193;27;20023;-37
2021/09/14 07:02:33;;;;;;;14.30;9.90;;;22.20;67.60;;;;;;5139353;27;20028;-37
2021/09/14 07:04:59;;;;;;;13.80;8.30;;;22.30;67.00;;;;;;5139278;27;20037;-34
2021/09/14 07:07:25;;;;;;;11.07;8.10;;;22.30;66.20;;;;;;5139329;27;20430;-37
2021/09/14 07:09:50;;;;;;;10.50;7.03;;;22.40;65.50;;;;;;5139190;27;20447;-35
2021/09/14 07:12:16;;;;;;;8.20;6.63;;;22.40;64.50;;;;;;5139190;27;20399;-35
2021/09/14 07:14:42;;;;;;;9.95;6.63;;;22.50;64.10;;;;;;5138861;27;20394;-36
2021/09/14 07:17:09;;;;;;;8.50;6.78;;;22.50;63.50;;;;;;5138907;27;20043;-35
2021/09/14 07:19:35;;;;;;;8.77;5.68;;;22.60;63.20;;;;;;5138970;27;20411;-35
2021/09/14 07:22:01;;;;;;;10.88;6.43;;;22.60;62.50;;;;;;5138961;27;20082;-34
2021/09/14 07:24:27;;;;;;;12.25;7.35;;;22.70;62.00;;;;;;5138860;27;20023;-36
2021/09/14 07:26:53;;;;;;;9.60;7.28;;;22.70;62.30;;;;;;5138761;27;20177;-35
2021/09/14 07:29:18;;;;;;;9.07;6.68;;;22.80;63.10;;;;;;5138451;27;20026;-36
2021/09/14 07:31:45;;;;;;;8.48;6.35;;;22.80;62.60;;;;;;5138686;27;20288;-36
2021/09/14 07:34:11;;;;;;;6.75;5.47;;;22.80;62.30;;;;;;5138775;27;20041;-37
2021/09/14 07:36:37;;;;;;;10.98;7.75;;;22.90;62.20;;;;;;5138313;27;20468;-37
2021/09/14 07:39:02;;;;;;;13.68;5.88;;;22.90;60.90;;;;;;5120201;27;20089;-35
2021/09/14 07:41:28;;;;;;;8.25;6.43;;;23.00;60.50;;;;;;5138130;27;20032;-36
2021/09/14 07:43:54;;;;;;;12.32;6.50;;;23.00;60.80;;;;;;5137731;27;20034;-36
2021/09/14 07:46:19;;;;;;;9.25;6.13;;;23.00;60.70;;;;;;5138192;27;20024;-35
2021/09/14 07:48:45;;;;;;;12.23;7.05;;;23.10;60.90;;;;;;5138072;27;20312;-35
2021/09/14 07:51:11;;;;;;;11.55;5.53;;;23.10;60.50;;;;;;5138123;27;20371;-36
2021/09/14 07:53:36;;;;;;;9.23;5.82;;;23.10;59.10;;;;;;5138301;27;20050;-34
2021/09/14 07:56:02;;;;;;;16.58;7.18;;;23.10;59.60;;;;;;5138406;27;20095;-34
2021/09/14 07:58:28;;;;;;;7.85;5.22;;;23.10;58.90;;;;;;5137848;27;20035;-35
2021/09/14 08:00:54;;;;;;;8.30;5.40;;;23.20;60.20;;;;;;5137347;27;20046;-34
2021/09/14 08:03:19;;;;;;;9.25;6.72;;;23.20;59.50;;;;;;5138693;27;20035;-36
2021/09/14 08:05:45;;;;;;;7.95;6.50;;;23.20;60.10;;;;;;5137669;27;20027;-35
2021/09/14 08:08:11;;;;;;;8.20;6.22;;;23.20;60.40;;;;;;5138462;27;20114;-35
2021/09/14 08:10:36;;;;;;;10.93;6.90;;;23.20;60.40;;;;;;5119071;27;20056;-37
2021/09/14 08:13:03;;;;;;;7.38;6.07;;;23.20;60.40;;;;;;5138135;27;20084;-36
2021/09/14 08:15:29;;;;;;;9.40;6.35;;;23.20;60.60;;;;;;5138047;27;20034;-37
2021/09/14 08:17:54;;;;;;;9.65;7.60;;;23.20;61.00;;;;;;5138162;27;20034;-34
2021/09/14 08:20:20;;;;;;;11.63;6.97;;;23.20;61.20;;;;;;5138031;27;20023;-35
2021/09/14 08:22:46;;;;;;;11.32;6.70;;;23.20;61.30;;;;;;5137570;27;20076;-35
2021/09/14 08:25:13;;;;;;;7.88;5.88;;;23.20;60.80;;;;;;5137940;27;20325;-36
2021/09/14 08:27:41;;;;;;;8.77;5.38;;;23.20;60.40;;;;;;5137706;27;20415;-35
2021/09/14 08:30:07;;;;;;;7.80;5.68;;;23.20;60.40;;;;;;5137359;27;20035;-35
2021/09/14 08:32:34;;;;;;;7.82;5.60;;;23.20;59.30;;;;;;5137451;27;20123;-35
2021/09/14 08:34:59;;;;;;;8.82;6.10;;;23.30;59.80;;;;;;5137198;27;20023;-35
2021/09/14 08:37:25;;;;;;;8.45;6.30;;;23.30;59.90;;;;;;5137110;27;20046;-36
2021/09/14 08:39:51;;;;;;;11.10;6.43;;;23.30;59.90;;;;;;5137520;27;20020;-35
2021/09/14 08:42:19;;;;;;;8.52;6.25;;;23.40;60.00;;;;;;5137389;27;20050;-35
2021/09/14 08:44:45;;;;;;;7.43;6.05;;;23.40;60.10;;;;;;5137216;27;20031;-35
2021/09/14 08:47:11;;;;;;;10.57;6.88;;;23.50;60.30;;;;;;5137068;27;20151;-35
2021/09/14 08:49:36;;;;;;;8.63;6.70;;;23.60;60.60;;;;;;5136797;27;20028;-35
2021/09/14 08:52:03;;;;;;;9.18;6.63;;;23.60;60.00;;;;;;5137045;27;20114;-35
2021/09/14 08:54:28;;;;;;;6.90;5.05;;;23.70;59.50;;;;;;5136734;27;20053;-37
2021/09/14 08:56:54;;;;;;;8.65;5.80;;;23.70;59.40;;;;;;5136652;27;20118;-36
2021/09/14 08:59:28;;;;;;;8.18;5.65;;;23.80;59.30;;;;;;5136950;27;20022;-36
2021/09/14 09:02:04;;;;;;;7.00;5.50;;;23.90;58.60;;;;;;5136918;27;20027;-37
2021/09/14 09:04:30;;;;;;;7.32;5.80;;;23.90;58.60;;;;;;5136536;27;20407;-35
2021/09/14 09:06:56;;;;;;;8.77;5.35;;;23.90;58.70;;;;;;5136333;27;20080;-37
2021/09/14 09:09:25;;;;;;;8.73;6.60;;;23.90;58.50;;;;;;5136877;27;20023;-35
2021/09/14 09:12:02;;;;;;;12.15;7.78;;;23.90;58.30;;;;;;5136128;27;20058;-37
2021/09/14 09:14:50;;;;;;;13.25;7.47;;;23.90;57.90;;;;;;5136828;27;20027;-36
2021/09/14 09:17:18;;;;;;;13.68;6.68;;;23.90;57.30;;;;;;5136653;27;20031;-36
2021/09/14 09:20:06;;;;;;;9.30;5.47;;;23.90;57.30;;;;;;5136611;27;20050;-36
2021/09/14 09:22:34;;;;;;;6.15;4.93;;;23.90;57.60;;;;;;5137041;27;20047;-36
2021/09/14 09:25:00;;;;;;;8.73;5.25;;;23.90;57.50;;;;;;5136725;27;20468;-36
2021/09/14 09:27:28;;;;;;;9.80;5.20;;;24.00;57.40;;;;;;5136999;27;20039;-34
2021/09/14 09:30:08;;;;;;;7.80;5.38;;;24.00;57.70;;;;;;5136344;27;20090;-34
2021/09/14 09:32:47;;;;;;;;;;;24.10;57.70;;;;;;5137089;27;20031;-34
2021/09/14 09:35:27;;;;;;;10.05;4.82;;;24.10;57.70;;;;;;5136505;27;19903;-35
2021/09/14 09:37:54;;;;;;;8.13;4.80;;;24.10;57.00;;;;;;5136400;27;20482;-36
2021/09/14 09:40:34;;;;;;;6.03;4.35;;;24.10;56.60;;;;;;5136357;27;20027;-35
2021/09/14 09:43:07;;;;;;;7.93;4.85;;;24.20;56.00;;;;;;5136458;28;20467;-36
2021/09/14 09:45:53;;;;;;;10.10;5.03;;;24.20;55.80;;;;;;5136407;28;20047;-36
2021/09/14 09:48:18;;;;;;;6.38;4.68;;;24.20;55.70;;;;;;5136017;28;20035;-37
2021/09/14 09:50:44;;;;;;;5.45;4.82;;;24.30;55.70;;;;;;5135979;28;20019;-36
2021/09/14 09:53:11;;;;;;;7.13;4.63;;;24.30;55.60;;;;;;5136650;28;20483;-34
2021/09/14 09:55:39;;;;;;;7.80;4.72;;;24.30;55.50;;;;;;5135753;28;20047;-37
2021/09/14 09:58:05;;;;;;;7.18;4.47;;;24.30;55.60;;;;;;5136628;28;20059;-37
2021/09/14 10:00:34;;;;;;;4.78;4.13;;;24.30;55.10;;;;;;5135944;28;20106;-34
2021/09/14 10:03:08;;;;;;;6.20;4.00;;;24.30;54.30;;;;;;5136335;28;20395;-37
2021/09/14 10:05:36;;;;;;;9.23;4.40;;;24.40;53.20;;;;;;5135987;28;20099;-36
2021/09/14 10:08:14;;;;;;;5.90;3.90;;;24.30;53.90;;;;;;5136327;28;20053;-38
2021/09/14 10:10:41;;;;;;;5.38;3.72;;;24.40;53.40;;;;;;5135512;28;20062;-36
2021/09/14 10:13:08;;;;;;;6.57;3.83;;;24.40;53.80;;;;;;5136544;28;20049;-34
2021/09/14 10:15:44;;;;;;;5.43;3.70;;;24.40;53.50;;;;;;5136062;28;20323;-36
2021/09/14 10:18:11;;;;;;;6.97;3.90;;;24.50;53.90;;;;;;5135868;28;20434;-38
2021/09/14 10:20:42;;;;;;;4.75;3.72;;;24.60;53.50;;;;;;5135616;28;20031;-39
2021/09/14 10:23:18;;;;;;;6.03;3.70;;;24.60;52.60;;;;;;5137627;27;20342;-37
2021/09/14 10:25:46;;;;;;;5.38;4.00;;;24.70;52.30;;;;;;5140001;27;20430;-36
2021/09/14 10:28:14;;;;;;;4.80;3.45;;;24.80;52.20;;;;;;5140243;27;20327;-37
2021/09/14 10:30:41;;;;;;;5.00;3.42;;;24.80;51.60;;;;;;5139672;27;20023;-37
2021/09/14 10:33:22;;;;;;;7.93;3.40;;;24.90;51.80;;;;;;5140123;27;20035;-36
2021/09/14 10:35:47;;;;;;;6.72;2.90;;;25.00;51.60;;;;;;5139759;27;20045;-37
2021/09/14 10:38:15;;;;;;;12.52;3.42;;;25.00;51.60;;;;;;5139843;27;20443;-37
2021/09/14 10:40:45;;;;;;;9.70;3.25;;;25.00;50.40;;;;;;5139344;27;20035;-37
2021/09/14 10:43:27;;;;;;;5.15;3.30;;;25.10;50.60;;;;;;5139801;27;20023;-36
2021/09/14 10:45:54;;;;;;;5.63;3.42;;;25.20;50.50;;;;;;5139306;27;20466;-36
2021/09/14 10:48:19;;;;;;;4.93;3.28;;;25.20;50.10;;;;;;5139306;27;20419;-35
2021/09/14 10:50:45;;;;;;;9.70;6.65;;;25.30;49.60;;;;;;5138954;27;20039;-34
2021/09/14 10:53:26;;;;;;;8.85;3.10;;;25.40;49.40;;;;;;5139533;27;20091;-34
2021/09/14 10:55:57;;;;;;;5.20;3.47;;;25.50;48.90;;;;;;5139014;27;20334;-35
2021/09/14 10:58:23;;;;;;;4.80;3.47;;;25.50;48.60;;;;;;5139052;27;20063;-35
2021/09/14 11:00:49;;;;;;;4.70;3.20;;;25.60;48.70;;;;;;5138552;27;20031;-35
2021/09/14 11:03:20;;;;;;;7.28;4.35;;;25.60;48.30;;;;;;5139881;27;20521;-36
2021/09/14 11:05:51;;;;;;;3.38;2.90;;;25.70;48.60;;;;;;5139127;27;20361;-37
2021/09/14 11:08:23;;;;;;;5.60;3.20;;;25.80;48.60;;;;;;5139840;27;20153;-35
2021/09/14 11:10:49;;;;;;;4.88;3.47;;;25.90;48.10;;;;;;5138824;27;20056;-35
2021/09/14 11:13:26;;;;;;;5.35;2.97;;;26.00;47.70;;;;;;5139410;27;20031;-34
2021/09/14 11:16:01;;;;;;;4.03;3.17;;;26.10;47.30;;;;;;5138693;27;20023;-34
2021/09/14 11:18:29;;;;;;;4.68;3.05;;;26.20;47.40;;;;;;5120813;27;20038;-35
2021/09/14 11:21:09;;;;;;;4.82;2.92;;;26.30;47.30;;;;;;5138334;27;20027;-35
2021/09/14 11:23:38;;;;;;;4.23;2.70;;;26.30;46.40;;;;;;5139044;27;20031;-35
2021/09/14 11:26:07;;;;;;;5.10;3.00;;;26.40;46.40;;;;;;5138998;27;20251;-35
2021/09/14 11:28:33;;;;;;;5.95;3.20;;;26.50;47.00;;;;;;5138769;27;20061;-35
2021/09/14 11:31:01;;;;;;;4.93;2.83;;;26.60;46.40;;;;;;5120402;27;20058;-35
2021/09/14 11:33:28;;;;;;;3.88;2.80;;;26.70;46.10;;;;;;5120023;27;20073;-35
2021/09/14 11:35:55;;;;;;;7.57;3.35;;;26.70;46.10;;;;;;5138514;27;20038;-37
2021/09/14 11:38:23;;;;;;;5.47;2.88;;;26.90;44.90;;;;;;5120526;27;20473;-37
2021/09/14 11:40:54;;;;;;;7.32;2.97;;;27.00;45.00;;;;;;5138453;27;20085;-37
2021/09/14 11:43:26;;;;;;;3.67;3.10;;;27.10;43.50;;;;;;5138322;27;20054;-35
2021/09/14 11:45:53;;;;;;;5.50;2.90;;;27.20;43.90;;;;;;5138168;27;20027;-37
2021/09/14 11:48:54;;;;;;;7.22;2.90;;;27.30;43.20;;;;;;5138805;27;20031;-34
2021/09/14 11:51:20;;;;;;;5.13;3.13;;;27.40;43.70;;;;;;5111996;27;20089;-35
2021/09/14 11:53:51;;;;;;;7.30;3.25;;;27.50;43.20;;;;;;5137969;27;20063;-35
2021/09/14 11:56:18;;;;;;;3.78;2.83;;;27.70;43.20;;;;;;5137935;27;20098;-34
2021/09/14 11:58:48;;;;;;;6.25;3.13;;;27.80;42.80;;;;;;5138072;27;20088;-37
2021/09/14 12:01:19;;;;;;;4.57;3.00;;;28.00;42.30;;;;;;5137695;27;20083;-37
2021/09/14 12:03:52;;;;;;;7.50;3.10;;;28.10;42.10;;;;;;5137702;27;20062;-36
2021/09/14 12:06:25;;;;;;;5.93;2.95;;;28.30;42.00;;;;;;5137818;27;20104;-37
2021/09/14 12:08:51;;;;;;;6.00;2.72;;;28.50;42.30;;;;;;5137703;27;20184;-37
2021/09/14 12:11:29;;;;;;;7.88;3.00;;;28.60;41.90;;;;;;5137991;27;20027;-41
2021/09/14 12:13:57;;;;;;;6.18;3.45;;;28.80;42.50;;;;;;5137542;27;20031;-36
2021/09/14 12:16:27;;;;;;;8.63;3.70;;;28.90;41.90;;;;;;5137747;27;20021;-35
2021/09/14 12:18:53;;;;;;;5.57;3.15;;;29.10;42.10;;;;;;5137402;27;20058;-36
2021/09/14 12:21:19;;;;;;;4.55;2.88;;;29.30;41.80;;;;;;5137381;27;20035;-38
2021/09/14 12:23:45;;;;;;;5.13;2.92;;;29.40;41.60;;;;;;5137330;27;20039;-35
2021/09/14 12:26:20;;;;;;;4.00;3.10;;;29.50;41.50;;;;;;5137497;27;20019;-36
2021/09/14 12:28:47;;;;;;;4.30;2.85;;;29.60;40.80;;;;;;5137394;27;20066;-37
2021/09/14 12:31:13;;;;;;;9.63;3.28;;;29.60;40.40;;;;;;5136934;27;20034;-38
2021/09/14 12:33:39;;;;;;;4.32;3.20;;;29.50;40.00;;;;;;5137413;27;20105;-37
2021/09/14 12:36:05;;;;;;;4.30;3.20;;;29.50;39.80;;;;;;5137621;27;20114;-37
2021/09/14 12:38:30;;;;;;;4.40;2.97;;;29.40;39.60;;;;;;5137404;27;20027;-35
2021/09/14 12:40:56;;;;;;;4.03;2.85;;;29.10;39.60;;;;;;5137050;27;20110;-38
2021/09/14 12:43:22;;;;;;;9.00;3.83;;;28.90;39.80;;;;;;5137776;27;20410;-37
2021/09/14 12:45:47;;;;;;;6.70;4.10;;;28.80;39.80;;;;;;5124669;27;20425;-37
2021/09/14 12:48:13;;;;;;;6.68;4.32;;;28.70;40.50;;;;;;5117151;28;20068;-37
2021/09/14 12:50:39;;;;;;;7.47;3.80;;;28.80;40.40;;;;;;5116543;28;20036;-37
2021/09/14 12:53:04;;;;;;;7.22;3.55;;;28.80;39.50;;;;;;5116683;28;20032;-35
2021/09/14 12:55:37;;;;;;;10.52;3.75;;;28.70;39.20;;;;;;5116161;28;20461;-37
2021/09/14 12:58:05;;;;;;;7.45;3.53;;;28.50;38.50;;;;;;5116790;28;20051;-39
2021/09/14 13:00:32;;;;;;;4.28;2.95;;;28.40;39.30;;;;;;5116162;28;20419;-36
2021/09/14 13:02:58;;;;;;;4.65;3.10;;;28.20;39.20;;;;;;5116536;28;20028;-35
2021/09/14 13:05:28;;;;;;;8.15;3.10;;;28.00;39.20;;;;;;5116176;28;20031;-36
2021/09/14 13:07:55;;;;;;;4.22;2.97;;;27.80;39.40;;;;;;5116165;28;20102;-36
2021/09/14 13:10:21;;;;;;;4.55;3.10;;;27.60;39.60;;;;;;5115657;28;20063;-37
2021/09/14 13:12:49;;;;;;;5.15;2.65;;;27.50;39.90;;;;;;5115946;28;20027;-36
2021/09/14 13:18:00;;;;;;;4.97;3.00;;;27.40;39.60;;;;;;5127586;27;20030;-36
2021/09/14 13:20:27;;;;;;;4.93;3.15;;;27.40;39.90;;;;;;5136464;27;20323;-36
2021/09/14 13:22:54;;;;;;;7.75;3.53;;;27.40;40.40;;;;;;5136557;27;20039;-37
2021/09/14 13:25:22;;;;;;;9.52;4.40;;;27.40;40.70;;;;;;5136762;27;20027;-37
2021/09/14 13:27:48;;;;;;;8.48;3.90;;;27.50;40.90;;;;;;5136520;27;20319;-35
2021/09/14 13:30:14;;;;;;;8.93;4.15;;;27.60;40.40;;;;;;5136219;27;20160;-35
2021/09/14 13:32:39;;;;;;;8.70;4.35;;;27.80;40.50;;;;;;5136110;27;20114;-35
2021/09/14 13:35:06;;;;;;;7.25;3.90;;;28.10;39.00;;;;;;5136050;27;20423;-35
2021/09/14 13:37:32;;;;;;;5.97;3.63;;;28.20;39.10;;;;;;5136068;27;20395;-35
2021/09/14 13:39:58;;;;;;;9.40;3.88;;;28.30;38.20;;;;;;5136416;27;20300;-35